Time;durP1;ratioP1;P1;durP2;ratioP2;P2;SDS_P1;SDS_P2;PMS_P1;PMS_P2;Temp;Humidity;BMP_temperature;BMP_pressure;BME280_temperature;BME280_humidity;BME280_pressure;Samples;Min_cycle;Max_cycle;Signal;HPM_P1;HPM_P2
2022/10/11 00:01:45;;;;;;;7.43;6.40;;;13.10;99.90;;;;;;4140012;28;20060;-58
2022/10/11 00:04:05;;;;;;;6.40;6.20;;;13.10;99.90;;;;;;4139981;28;20173;-58
2022/10/11 00:06:26;;;;;;;8.80;7.40;;;13.10;99.90;;;;;;4135794;28;20512;-58
2022/10/11 00:08:46;;;;;;;6.88;6.47;;;13.20;99.90;;;;;;4139820;28;20056;-58
2022/10/11 00:11:08;;;;;;;7.05;6.75;;;13.20;99.90;;;;;;4139583;28;20068;-58
2022/10/11 00:13:29;;;;;;;6.07;5.97;;;13.10;99.90;;;;;;4139900;28;20561;-58
2022/10/11 00:15:50;;;;;;;7.18;6.78;;;13.10;99.90;;;;;;4139716;28;20127;-58
2022/10/11 00:18:10;;;;;;;6.53;6.28;;;13.10;99.90;;;;;;4140326;28;20085;-58
2022/10/11 00:20:31;;;;;;;6.22;6.00;;;13.10;99.90;;;;;;4139718;28;20523;-58
2022/10/11 00:22:52;;;;;;;6.95;6.65;;;13.10;99.90;;;;;;4139704;28;20061;-57
2022/10/11 00:25:12;;;;;;;7.05;6.75;;;13.10;99.90;;;;;;4139687;28;20057;-57
2022/10/11 00:27:33;;;;;;;7.40;6.95;;;13.10;99.90;;;;;;4139097;28;20104;-57
2022/10/11 00:29:54;;;;;;;7.72;7.35;;;13.20;99.90;;;;;;4139058;28;20068;-58
2022/10/11 00:32:14;;;;;;;6.32;5.90;;;13.10;99.90;;;;;;4139450;28;20414;-58
2022/10/11 00:34:34;;;;;;;6.32;5.90;;;13.10;99.90;;;;;;4139677;28;20665;-58
2022/10/11 00:36:55;;;;;;;7.15;6.75;;;13.10;99.90;;;;;;4139877;28;20056;-58
2022/10/11 00:39:15;;;;;;;7.40;7.00;;;13.10;99.90;;;;;;4139887;28;20137;-58
2022/10/11 00:41:36;;;;;;;7.15;6.70;;;13.10;99.90;;;;;;4139180;28;20053;-58
2022/10/11 00:44:15;;;;;;;6.45;6.18;;;13.20;99.90;;;;;;4139185;28;20057;-58
2022/10/11 00:46:36;;;;;;;7.70;7.22;;;13.10;99.90;;;;;;4139651;28;20056;-57
2022/10/11 00:49:06;;;;;;;8.45;7.80;;;13.10;99.90;;;;;;4139220;28;20060;-58
2022/10/11 00:51:42;;;;;;;7.63;6.93;;;13.10;99.90;;;;;;4138706;28;20061;-57
2022/10/11 00:54:04;;;;;;;7.50;6.70;;;13.10;99.90;;;;;;4139345;28;20528;-58
2022/10/11 00:56:37;;;;;;;8.07;7.53;;;13.10;99.90;;;;;;4139233;28;20052;-57
2022/10/11 00:59:01;;;;;;;7.15;6.82;;;13.00;99.90;;;;;;4139193;28;20075;-57
2022/10/11 01:01:22;;;;;;;6.93;6.70;;;13.00;99.90;;;;;;4164831;28;20108;-58
2022/10/11 01:03:43;;;;;;;7.60;7.40;;;13.00;99.90;;;;;;4138481;28;20056;-57
2022/10/11 01:06:04;;;;;;;6.95;6.65;;;13.00;99.90;;;;;;4138850;28;20061;-57
2022/10/11 01:08:27;;;;;;;6.78;6.43;;;13.00;99.90;;;;;;4138955;28;20057;-58
2022/10/11 01:10:48;;;;;;;7.45;7.05;;;13.10;99.90;;;;;;4138881;28;20060;-58
2022/10/11 01:13:27;;;;;;;6.93;6.53;;;13.00;99.90;;;;;;4138691;28;20089;-58
2022/10/11 01:16:27;;;;;;;7.00;6.70;;;13.00;99.90;;;;;;4138939;28;20065;-58
2022/10/11 01:19:06;;;;;;;6.28;5.90;;;13.20;99.90;;;;;;4138846;28;20056;-58
2022/10/11 01:21:47;;;;;;;5.40;5.10;;;13.10;99.90;;;;;;4138394;28;20060;-58
2022/10/11 01:24:26;;;;;;;6.18;5.13;;;13.10;99.90;;;;;;4137250;28;20064;-58
2022/10/11 01:27:08;;;;;;;6.22;5.70;;;13.10;99.90;;;;;;4138227;28;20049;-58
2022/10/11 01:29:37;;;;;;;6.45;5.97;;;13.00;99.90;;;;;;4138548;28;20679;-58
2022/10/11 01:32:17;;;;;;;6.03;5.63;;;13.00;99.90;;;;;;4138527;28;20092;-57
2022/10/11 01:34:55;;;;;;;8.38;8.13;;;13.00;99.90;;;;;;4138560;28;20057;-58
2022/10/11 01:37:26;;;;;;;8.88;8.38;;;12.90;99.90;;;;;;4138387;28;20077;-57
2022/10/11 01:39:55;;;;;;;7.20;6.75;;;12.90;99.90;;;;;;4138425;28;20061;-58
2022/10/11 01:42:17;;;;;;;7.65;7.03;;;12.90;99.90;;;;;;4138335;28;20123;-57
2022/10/11 01:44:38;;;;;;;7.03;6.38;;;12.90;99.90;;;;;;4138347;28;20085;-58
2022/10/11 01:46:59;;;;;;;7.32;7.13;;;12.80;99.90;;;;;;4138233;28;20061;-58
2022/10/11 01:49:20;;;;;;;7.88;7.25;;;12.80;99.90;;;;;;4138566;28;20092;-58
2022/10/11 01:51:45;;;;;;;6.43;6.13;;;12.80;99.90;;;;;;4138075;28;20060;-58
2022/10/11 01:54:19;;;;;;;7.75;7.40;;;12.80;99.90;;;;;;4138160;28;20053;-57
2022/10/11 01:57:24;;;;;;;7.90;7.40;;;12.70;99.90;;;;;;4138197;28;20053;-57
2022/10/11 02:00:09;;;;;;;7.00;6.65;;;12.80;99.90;;;;;;4138044;28;20061;-58
2022/10/11 02:03:03;;;;;;;7.88;7.22;;;12.80;99.90;;;;;;4137978;28;20049;-58
2022/10/11 02:05:52;;;;;;;7.00;6.63;;;12.70;99.90;;;;;;4137966;28;20133;-58
2022/10/11 02:08:25;;;;;;;7.57;7.25;;;12.80;99.90;;;;;;4138233;28;20124;-58
2022/10/11 02:10:54;;;;;;;;;;;12.70;99.90;;;;;;4138152;28;20505;-58
2022/10/11 02:13:27;;;;;;;6.90;6.70;;;12.70;99.90;;;;;;4138152;28;20611;-57
2022/10/11 02:15:49;;;;;;;6.30;6.18;;;12.70;99.90;;;;;;4137598;28;20060;-57
2022/10/11 02:18:15;;;;;;;8.23;7.80;;;12.80;99.90;;;;;;4138131;28;20053;-57
2022/10/11 02:20:39;;;;;;;7.05;6.82;;;12.80;99.90;;;;;;4133275;28;20069;-58
2022/10/11 02:23:07;;;;;;;6.25;6.05;;;12.80;99.90;;;;;;4137283;28;20057;-58
2022/10/11 02:25:33;;;;;;;6.80;6.35;;;12.90;99.90;;;;;;4138302;28;20068;-57
2022/10/11 02:27:57;;;;;;;7.00;6.70;;;12.90;99.90;;;;;;4133758;28;20732;-58
2022/10/11 02:30:18;;;;;;;6.68;6.47;;;12.90;99.90;;;;;;4132685;28;20053;-58
2022/10/11 02:32:41;;;;;;;7.13;6.82;;;12.90;99.90;;;;;;4137396;28;20100;-58
2022/10/11 02:35:02;;;;;;;;;;;13.00;99.90;;;;;;4139229;28;20048;-58
2022/10/11 02:38:20;;;;;;;7.07;6.35;;;13.00;99.90;;;;;;4137165;28;19949;-58
2022/10/11 02:40:46;;;;;;;7.22;6.78;;;13.00;99.90;;;;;;4143335;28;20056;-58
2022/10/11 02:43:16;;;;;;;6.88;6.60;;;13.00;99.90;;;;;;4142775;28;20116;-58
2022/10/11 02:46:08;;;;;;;6.40;6.13;;;13.00;99.90;;;;;;4143354;28;20441;-58
2022/10/11 02:48:31;;;;;;;6.10;5.70;;;13.00;99.90;;;;;;4079317;29;20589;-58
2022/10/11 02:50:53;;;;;;;8.38;7.38;;;13.00;99.90;;;;;;4078973;29;20080;-57
2022/10/11 02:53:14;;;;;;;7.22;6.85;;;13.00;99.90;;;;;;4079303;29;20619;-58
2022/10/11 02:55:35;;;;;;;7.90;7.60;;;13.00;99.90;;;;;;4078743;29;20144;-58
2022/10/11 02:57:56;;;;;;;9.88;9.13;;;13.00;99.90;;;;;;4079159;29;20051;-58
2022/10/11 03:00:16;;;;;;;11.15;10.27;;;13.00;99.90;;;;;;4079145;29;20165;-58
2022/10/11 03:02:37;;;;;;;13.90;10.35;;;13.00;99.90;;;;;;4078782;29;20058;-58
2022/10/11 03:04:57;;;;;;;9.50;8.63;;;13.00;99.90;;;;;;4078659;29;20063;-57
2022/10/11 03:07:18;;;;;;;10.15;9.27;;;13.00;99.90;;;;;;4078894;29;20071;-58
2022/10/11 03:09:39;;;;;;;7.90;7.57;;;12.90;99.90;;;;;;4079205;29;20139;-57
2022/10/11 03:11:59;;;;;;;7.43;7.00;;;12.90;99.90;;;;;;4090433;29;20449;-58
2022/10/11 03:14:20;;;;;;;6.60;6.30;;;12.80;99.90;;;;;;4094838;29;20098;-58
2022/10/11 03:16:40;;;;;;;7.72;7.25;;;12.70;99.90;;;;;;4094890;28;20127;-58
2022/10/11 03:19:01;;;;;;;8.00;7.50;;;12.70;99.90;;;;;;4094260;29;20555;-57
2022/10/11 03:21:23;;;;;;;12.15;7.70;;;12.60;99.90;;;;;;4080615;29;20127;-58
2022/10/11 03:23:44;;;;;;;8.65;8.00;;;12.60;99.90;;;;;;4094529;29;20504;-58
2022/10/11 03:26:05;;;;;;;8.18;7.50;;;12.70;99.90;;;;;;4136474;28;20593;-58
2022/10/11 03:28:26;;;;;;;7.57;6.68;;;12.60;99.90;;;;;;4136373;28;20116;-58
2022/10/11 03:30:50;;;;;;;7.38;6.80;;;12.60;99.90;;;;;;4136833;28;20057;-58
2022/10/11 03:33:11;;;;;;;7.45;7.03;;;12.70;99.90;;;;;;4136320;28;20057;-58
2022/10/11 03:35:31;;;;;;;6.13;6.03;;;12.70;99.90;;;;;;4136757;28;20136;-58
2022/10/11 03:37:51;;;;;;;7.10;6.63;;;12.70;99.90;;;;;;4136671;28;20413;-58
2022/10/11 03:40:13;;;;;;;6.78;6.47;;;12.70;99.90;;;;;;4132536;28;20049;-58
2022/10/11 03:42:34;;;;;;;7.35;7.00;;;12.80;99.90;;;;;;4136661;28;20092;-58
2022/10/11 03:44:58;;;;;;;7.07;6.30;;;12.80;99.90;;;;;;4136808;28;20133;-58
2022/10/11 03:47:18;;;;;;;6.75;6.30;;;12.80;99.90;;;;;;4136514;28;20056;-57
2022/10/11 03:49:39;;;;;;;7.88;7.20;;;12.80;99.90;;;;;;4136227;28;20577;-58
2022/10/11 03:52:03;;;;;;;8.02;7.53;;;12.80;99.90;;;;;;4136850;28;20052;-58
2022/10/11 03:54:23;;;;;;;8.48;7.82;;;12.80;99.90;;;;;;4136330;28;20425;-58
2022/10/11 03:56:44;;;;;;;7.97;7.00;;;12.90;99.90;;;;;;4136316;28;20061;-58
2022/10/11 03:59:04;;;;;;;7.07;6.88;;;12.90;99.90;;;;;;4132126;28;20046;-57
2022/10/11 04:01:25;;;;;;;7.53;6.97;;;13.00;99.90;;;;;;4136572;28;20049;-58
2022/10/11 04:03:46;;;;;;;7.18;6.65;;;13.00;99.90;;;;;;4136572;28;20061;-58
2022/10/11 04:06:07;;;;;;;7.18;6.78;;;13.00;99.90;;;;;;4137011;28;20128;-57
2022/10/11 04:08:28;;;;;;;8.55;7.18;;;13.00;99.90;;;;;;4137003;28;20057;-57
2022/10/11 04:10:48;;;;;;;7.68;7.18;;;13.00;99.90;;;;;;4136074;28;20524;-58
2022/10/11 04:13:10;;;;;;;7.60;7.25;;;13.00;99.90;;;;;;4135631;28;20572;-58
2022/10/11 04:15:31;;;;;;;6.68;6.32;;;13.00;99.90;;;;;;4136781;28;20589;-57
2022/10/11 04:17:51;;;;;;;6.47;6.28;;;13.00;99.90;;;;;;4136544;28;20420;-58
2022/10/11 04:20:12;;;;;;;7.20;6.90;;;12.90;99.90;;;;;;4135888;28;20073;-57
2022/10/11 04:22:32;;;;;;;8.02;7.75;;;12.90;99.90;;;;;;4135590;28;20052;-58
2022/10/11 04:24:53;;;;;;;7.82;7.30;;;12.80;99.90;;;;;;4135487;28;20513;-58
2022/10/11 04:27:13;;;;;;;6.60;6.22;;;12.80;99.90;;;;;;4136137;28;20609;-58
2022/10/11 04:29:34;;;;;;;7.97;7.53;;;12.80;99.90;;;;;;4162908;28;20056;-57
2022/10/11 04:31:54;;;;;;;6.80;6.45;;;12.80;99.90;;;;;;4160648;28;20052;-58
2022/10/11 04:34:16;;;;;;;7.10;6.43;;;12.80;99.90;;;;;;4136778;28;20049;-58
2022/10/11 04:36:37;;;;;;;7.88;7.28;;;12.80;99.90;;;;;;4135859;28;20052;-58
2022/10/11 04:39:00;;;;;;;8.32;7.72;;;12.80;99.90;;;;;;4136891;28;20061;-58
2022/10/11 04:41:21;;;;;;;8.32;7.45;;;12.80;99.90;;;;;;4135745;28;20060;-58
2022/10/11 04:43:42;;;;;;;7.80;7.25;;;12.80;99.90;;;;;;4139313;28;20065;-58
2022/10/11 04:46:03;;;;;;;7.60;7.13;;;12.90;99.90;;;;;;4138187;28;20061;-58
2022/10/11 04:48:25;;;;;;;7.63;7.28;;;12.90;99.90;;;;;;4139731;28;20058;-58
2022/10/11 04:50:45;;;;;;;7.07;6.68;;;12.90;99.90;;;;;;4139218;28;20057;-58
2022/10/11 04:53:05;;;;;;;7.57;6.97;;;12.90;99.90;;;;;;4139237;28;20531;-58
2022/10/11 04:55:27;;;;;;;6.57;6.13;;;12.80;99.90;;;;;;4138998;28;20060;-58
2022/10/11 04:57:48;;;;;;;8.43;8.05;;;12.90;99.90;;;;;;4138826;28;20101;-58
2022/10/11 05:00:09;;;;;;;7.22;6.65;;;12.90;99.90;;;;;;4138923;28;20130;-58
2022/10/11 05:02:30;;;;;;;7.15;6.97;;;12.90;99.90;;;;;;4138663;28;20060;-58
2022/10/11 05:04:51;;;;;;;7.07;6.88;;;12.90;99.90;;;;;;4138628;28;20571;-58
2022/10/11 05:07:11;;;;;;;7.35;6.75;;;12.80;99.90;;;;;;4138781;28;20108;-58
2022/10/11 05:09:31;;;;;;;6.35;6.10;;;12.90;99.90;;;;;;4134875;28;20057;-58
2022/10/11 05:11:52;;;;;;;7.55;6.85;;;12.80;99.90;;;;;;4138589;28;20089;-58
2022/10/11 05:14:12;;;;;;;7.75;7.15;;;12.80;99.90;;;;;;4138564;28;20056;-57
2022/10/11 05:16:33;;;;;;;8.00;7.43;;;12.80;99.90;;;;;;4138679;28;20101;-58
2022/10/11 05:18:53;;;;;;;9.32;8.48;;;12.80;99.90;;;;;;4134744;28;20677;-58
2022/10/11 05:21:13;;;;;;;11.23;10.27;;;12.80;99.90;;;;;;4136638;28;20056;-58
2022/10/11 05:23:35;;;;;;;9.25;8.63;;;12.70;99.90;;;;;;4138474;28;20055;-58
2022/10/11 05:25:57;;;;;;;9.63;9.23;;;12.70;99.90;;;;;;4133301;28;20528;-58
2022/10/11 05:28:18;;;;;;;7.70;7.10;;;12.60;99.90;;;;;;4138490;28;20061;-57
2022/10/11 05:30:39;;;;;;;7.63;7.22;;;12.60;99.90;;;;;;4138250;28;20056;-56
2022/10/11 05:32:59;;;;;;;7.57;7.18;;;12.60;99.90;;;;;;4134864;28;20049;-56
2022/10/11 05:35:20;;;;;;;8.73;7.78;;;12.50;99.90;;;;;;4138613;28;20121;-56
2022/10/11 05:37:40;;;;;;;10.02;9.13;;;12.50;99.90;;;;;;4138355;28;20603;-56
2022/10/11 05:40:00;;;;;;;8.80;8.23;;;12.40;99.90;;;;;;4137966;28;20421;-56
2022/10/11 05:42:21;;;;;;;7.40;6.80;;;12.40;99.90;;;;;;4138210;28;20578;-56
2022/10/11 05:44:41;;;;;;;8.38;7.93;;;12.40;99.90;;;;;;4137829;28;20473;-56
2022/10/11 05:47:02;;;;;;;9.20;8.43;;;12.40;99.90;;;;;;4138180;28;20575;-56
2022/10/11 05:49:22;;;;;;;8.88;8.48;;;12.40;99.90;;;;;;4138156;28;20410;-56
2022/10/11 05:51:43;;;;;;;8.20;7.65;;;12.40;99.90;;;;;;4138096;28;20060;-56
2022/10/11 05:54:03;;;;;;;8.27;7.40;;;12.40;99.90;;;;;;4137967;28;20496;-56
2022/10/11 05:56:25;;;;;;;8.32;7.85;;;12.50;99.90;;;;;;4164412;28;20068;-56
2022/10/11 05:58:46;;;;;;;8.48;7.88;;;12.40;99.90;;;;;;4133811;28;20516;-57
2022/10/11 06:01:06;;;;;;;9.50;9.20;;;12.50;99.90;;;;;;4137396;28;20179;-57
2022/10/11 06:03:26;;;;;;;8.10;7.60;;;12.50;99.90;;;;;;4137268;28;20516;-57
2022/10/11 06:05:47;;;;;;;9.38;8.32;;;12.50;99.90;;;;;;4136857;28;20066;-57
2022/10/11 06:08:12;;;;;;;7.88;7.35;;;12.50;99.90;;;;;;4136835;28;20176;-56
2022/10/11 06:10:34;;;;;;;7.53;7.22;;;12.50;99.90;;;;;;4137723;28;20121;-56
2022/10/11 06:12:54;;;;;;;7.65;7.22;;;12.50;99.90;;;;;;4136941;28;20057;-56
2022/10/11 06:15:15;;;;;;;7.90;7.70;;;12.50;99.90;;;;;;4135639;28;20730;-56
2022/10/11 06:17:36;;;;;;;7.97;7.25;;;12.50;99.90;;;;;;4137373;28;20049;-56
2022/10/11 06:19:56;;;;;;;7.90;7.63;;;12.50;99.90;;;;;;4136343;28;20061;-57
2022/10/11 06:22:17;;;;;;;8.25;7.45;;;12.50;99.90;;;;;;4138047;28;20140;-57
2022/10/11 06:24:38;;;;;;;8.75;7.90;;;12.60;99.90;;;;;;4138125;28;20101;-56
2022/10/11 06:26:59;;;;;;;9.45;8.80;;;12.60;99.90;;;;;;4137613;28;20080;-56
2022/10/11 06:29:19;;;;;;;11.05;9.50;;;12.70;99.90;;;;;;4134100;28;20064;-56
2022/10/11 06:31:40;;;;;;;8.98;8.68;;;12.70;99.90;;;;;;4134315;28;20132;-56
2022/10/11 06:34:00;;;;;;;9.27;8.43;;;12.80;99.90;;;;;;4137305;28;20479;-56
2022/10/11 06:36:21;;;;;;;8.90;8.40;;;12.80;99.90;;;;;;4137175;28;20056;-56
2022/10/11 06:38:42;;;;;;;9.10;8.65;;;12.80;99.90;;;;;;4136307;28;20108;-56
2022/10/11 06:41:12;;;;;;;;;;;12.80;99.90;;;;;;4137852;28;20122;-57
2022/10/11 06:43:32;;;;;;;9.35;8.80;;;12.80;99.90;;;;;;4141623;28;19928;-57
2022/10/11 06:45:58;;;;;;;9.52;8.50;;;12.90;99.90;;;;;;4135521;28;20123;-56
2022/10/11 06:48:19;;;;;;;10.65;9.88;;;12.90;99.90;;;;;;4136681;28;20472;-56
2022/10/11 06:50:40;;;;;;;8.82;8.30;;;12.90;99.90;;;;;;4137017;28;20056;-56
2022/10/11 06:53:19;;;;;;;8.60;8.30;;;12.90;99.90;;;;;;4135909;28;20418;-56
2022/10/11 06:55:40;;;;;;;11.90;9.68;;;13.00;99.90;;;;;;4137537;28;20663;-56
2022/10/11 06:58:00;;;;;;;9.25;8.82;;;13.00;99.90;;;;;;4133625;28;20173;-57
2022/10/11 07:00:21;;;;;;;9.55;9.05;;;13.10;99.90;;;;;;4134693;28;20096;-57
2022/10/11 07:02:41;;;;;;;12.13;11.18;;;13.20;99.90;;;;;;4136837;28;20131;-57
2022/10/11 07:05:02;;;;;;;10.95;10.23;;;13.30;99.90;;;;;;4134129;28;20987;-57
2022/10/11 07:07:23;;;;;;;9.48;8.80;;;13.40;99.90;;;;;;4135330;28;20100;-57
2022/10/11 07:09:44;;;;;;;9.85;9.35;;;13.40;99.90;;;;;;4135759;28;20053;-57
2022/10/11 07:12:05;;;;;;;9.00;8.50;;;13.50;99.90;;;;;;4136075;28;20050;-55
2022/10/11 07:14:26;;;;;;;10.32;9.25;;;13.60;99.90;;;;;;4137345;28;20487;-57
2022/10/11 07:16:46;;;;;;;9.10;8.57;;;13.70;99.90;;;;;;4132391;28;20045;-56
2022/10/11 07:19:07;;;;;;;9.40;9.00;;;13.80;99.90;;;;;;4136012;28;20049;-57
2022/10/11 07:21:29;;;;;;;8.60;8.05;;;13.80;99.90;;;;;;4135993;28;20056;-57
2022/10/11 07:24:14;;;;;;;9.70;9.07;;;13.90;99.90;;;;;;4136448;28;20533;-57
2022/10/11 07:26:34;;;;;;;9.43;8.75;;;14.00;99.90;;;;;;4137236;28;20076;-57
2022/10/11 07:28:58;;;;;;;9.90;9.15;;;14.00;99.90;;;;;;4134937;28;20045;-56
2022/10/11 07:31:22;;;;;;;9.60;8.93;;;14.00;99.90;;;;;;4135902;28;20619;-57
2022/10/11 07:33:43;;;;;;;9.60;9.23;;;14.10;99.90;;;;;;4137054;28;20060;-57
2022/10/11 07:36:05;;;;;;;10.25;9.38;;;14.30;99.90;;;;;;4136540;28;20049;-57
2022/10/11 07:38:27;;;;;;;10.93;10.32;;;14.30;99.90;;;;;;4136611;28;20052;-57
2022/10/11 07:40:47;;;;;;;12.18;9.75;;;14.30;99.90;;;;;;4132061;28;20056;-57
2022/10/11 07:43:09;;;;;;;9.52;8.90;;;14.40;99.90;;;;;;4132583;28;20052;-56
2022/10/11 07:45:30;;;;;;;9.90;8.63;;;14.50;99.90;;;;;;4132698;28;20334;-56
2022/10/11 07:47:50;;;;;;;9.75;9.15;;;14.60;99.90;;;;;;4142105;28;20445;-54
2022/10/11 07:50:12;;;;;;;8.40;7.97;;;14.60;99.90;;;;;;4136234;28;20097;-55
2022/10/11 07:52:34;;;;;;;8.82;8.23;;;14.70;99.90;;;;;;4136433;28;20413;-56
2022/10/11 07:54:54;;;;;;;10.35;9.70;;;14.80;99.90;;;;;;4136586;28;20475;-56
2022/10/11 07:57:15;;;;;;;8.88;8.25;;;14.80;99.90;;;;;;4136411;28;20073;-55
2022/10/11 07:59:35;;;;;;;7.07;6.82;;;15.00;99.90;;;;;;4136072;28;20122;-56
2022/10/11 08:01:56;;;;;;;8.00;7.60;;;15.10;99.90;;;;;;4136101;28;20178;-57
2022/10/11 08:04:17;;;;;;;16.52;9.50;;;15.40;99.90;;;;;;4136602;28;20076;-56
2022/10/11 08:06:37;;;;;;;8.73;8.23;;;15.40;99.90;;;;;;4136445;28;20056;-57
2022/10/11 08:08:59;;;;;;;8.40;7.97;;;15.60;99.90;;;;;;4136651;28;20053;-55
2022/10/11 08:11:29;;;;;;;7.68;7.45;;;15.60;99.90;;;;;;4136502;28;20061;-57
2022/10/11 08:13:50;;;;;;;18.48;10.13;;;15.70;99.90;;;;;;4137696;28;20428;-57
2022/10/11 08:16:11;;;;;;;8.55;8.15;;;15.80;99.90;;;;;;4139314;28;20417;-56
2022/10/11 08:18:32;;;;;;;8.55;8.30;;;15.90;99.90;;;;;;4139552;28;20057;-57
2022/10/11 08:20:53;;;;;;;7.57;7.38;;;15.90;99.90;;;;;;4138855;28;20065;-56
2022/10/11 08:23:15;;;;;;;8.60;8.05;;;16.00;99.90;;;;;;4139211;28;20426;-56
2022/10/11 08:25:41;;;;;;;9.73;9.30;;;16.10;99.90;;;;;;4139574;28;20574;-56
2022/10/11 08:28:01;;;;;;;9.25;8.43;;;16.20;99.90;;;;;;4162265;28;20476;-56
2022/10/11 08:30:22;;;;;;;9.30;8.88;;;16.30;99.90;;;;;;4139963;28;20073;-56
2022/10/11 08:32:42;;;;;;;9.68;9.00;;;16.50;99.90;;;;;;4139104;28;20061;-57
2022/10/11 08:35:03;;;;;;;8.73;8.00;;;16.60;99.90;;;;;;4139451;28;20143;-57
2022/10/11 08:37:23;;;;;;;8.18;7.82;;;16.80;99.90;;;;;;4139008;28;20145;-56
2022/10/11 08:39:44;;;;;;;9.18;8.68;;;16.80;99.90;;;;;;4134993;28;20050;-56
2022/10/11 08:42:11;;;;;;;8.90;8.27;;;16.90;99.90;;;;;;4139188;28;20077;-56
2022/10/11 08:44:59;;;;;;;9.82;8.70;;;17.00;99.90;;;;;;4139105;28;20140;-56
2022/10/11 08:47:38;;;;;;;;;;;17.10;99.90;;;;;;4139746;28;20516;-57
2022/10/11 08:49:59;;;;;;;8.93;8.43;;;17.40;99.90;;;;;;4135698;28;20392;-56
2022/10/11 08:52:27;;;;;;;8.88;8.48;;;17.50;99.90;;;;;;4137942;28;20096;-57
2022/10/11 08:54:56;;;;;;;8.80;8.13;;;17.60;99.90;;;;;;4139044;28;20045;-57
2022/10/11 08:57:20;;;;;;;8.98;8.52;;;17.80;99.90;;;;;;4139102;28;20056;-56
2022/10/11 08:59:44;;;;;;;7.45;7.03;;;17.80;99.90;;;;;;4138026;28;20108;-56
2022/10/11 09:02:29;;;;;;;8.55;8.25;;;17.90;99.90;;;;;;4138801;28;20100;-56
2022/10/11 09:05:14;;;;;;;8.68;8.23;;;18.20;99.90;;;;;;4139259;28;20084;-57
2022/10/11 09:07:53;;;;;;;9.25;8.88;;;18.20;99.90;;;;;;4137832;28;20534;-56
2022/10/11 09:10:32;;;;;;;9.52;9.07;;;18.20;99.90;;;;;;4138751;28;20103;-56
2022/10/11 09:13:04;;;;;;;9.23;8.68;;;18.40;99.90;;;;;;4138450;28;20660;-56
2022/10/11 09:15:45;;;;;;;8.95;8.43;;;18.50;99.90;;;;;;4135112;28;20138;-56
2022/10/11 09:18:15;;;;;;;7.90;7.40;;;18.50;99.90;;;;;;4164683;28;20547;-57
2022/10/11 09:20:55;;;;;;;7.80;7.53;;;18.70;99.90;;;;;;4139125;28;20123;-57
2022/10/11 09:23:37;;;;;;;7.53;6.88;;;19.00;99.90;;;;;;4136735;28;20172;-57
2022/10/11 09:26:18;;;;;;;7.30;6.75;;;19.10;99.90;;;;;;4137533;28;20453;-56
2022/10/11 09:28:55;;;;;;;6.75;6.55;;;19.20;99.90;;;;;;4138860;28;20418;-56
2022/10/11 09:31:22;;;;;;;7.43;7.07;;;19.30;99.90;;;;;;4138347;28;20489;-56
2022/10/11 09:33:47;;;;;;;5.22;4.95;;;19.50;99.90;;;;;;4138034;28;20120;-57
2022/10/11 09:36:33;;;;;;;4.18;3.97;;;19.70;99.90;;;;;;4139164;28;20414;-57
2022/10/11 09:39:17;;;;;;;6.38;6.22;;;19.90;99.90;;;;;;4139325;28;20048;-56
2022/10/11 09:41:42;;;;;;;5.63;5.43;;;20.10;99.90;;;;;;4138502;28;20098;-58
2022/10/11 09:44:05;;;;;;;4.10;3.88;;;20.20;99.90;;;;;;4138219;28;20561;-56
2022/10/11 09:46:29;;;;;;;3.58;3.47;;;20.40;99.90;;;;;;4139765;28;20168;-57
2022/10/11 09:48:51;;;;;;;5.22;4.85;;;20.50;99.90;;;;;;4133024;28;20126;-57
2022/10/11 09:51:17;;;;;;;4.65;4.45;;;20.50;99.90;;;;;;4137003;28;20104;-56
2022/10/11 09:53:59;;;;;;;4.07;3.88;;;20.60;99.90;;;;;;4137620;28;20444;-57
2022/10/11 09:56:21;;;;;;;5.20;4.22;;;20.80;99.90;;;;;;4138639;28;20122;-56
2022/10/11 09:58:42;;;;;;;4.32;4.13;;;20.70;99.90;;;;;;4137308;28;20062;-57
2022/10/11 10:01:07;;;;;;;4.25;4.05;;;20.80;99.90;;;;;;4137990;28;20409;-57
2022/10/11 10:03:31;;;;;;;3.72;3.63;;;21.00;99.90;;;;;;4137557;28;20113;-58
2022/10/11 10:06:06;;;;;;;3.20;3.10;;;21.30;99.90;;;;;;4138731;28;20052;-58
2022/10/11 10:08:28;;;;;;;3.35;3.15;;;21.60;99.90;;;;;;4138356;28;20512;-57
2022/10/11 10:11:05;;;;;;;3.45;3.25;;;21.50;99.90;;;;;;4138233;28;20056;-57
2022/10/11 10:13:44;;;;;;;3.25;3.15;;;21.40;99.90;;;;;;4138407;28;20056;-57
2022/10/11 10:16:10;;;;;;;3.13;3.03;;;21.40;99.90;;;;;;4138934;28;20045;-57
2022/10/11 10:18:37;;;;;;;3.22;3.13;;;21.60;99.90;;;;;;4136187;28;20133;-58
2022/10/11 10:20:59;;;;;;;2.80;2.70;;;21.60;99.90;;;;;;4139364;28;20433;-56
2022/10/11 10:23:31;;;;;;;4.33;2.70;;;21.80;99.90;;;;;;4137674;28;20275;-57
2022/10/11 10:26:16;;;;;;;2.63;2.53;;;22.00;99.90;;;;;;4134676;28;20431;-57
2022/10/11 10:28:38;;;;;;;2.72;2.63;;;22.10;99.90;;;;;;4136896;28;20053;-58
2022/10/11 10:30:59;;;;;;;3.00;2.90;;;22.10;99.90;;;;;;4137435;28;20196;-57
2022/10/11 10:33:22;;;;;;;2.13;2.08;;;21.90;99.90;;;;;;4135786;28;20084;-56
2022/10/11 10:36:31;;;;;;;2.47;2.38;;;21.90;99.90;;;;;;4133322;28;20125;-56
2022/10/11 10:38:58;;;;;;;4.78;3.28;;;22.00;99.90;;;;;;4139768;28;20056;-57
2022/10/11 10:41:19;;;;;;;2.60;2.38;;;22.30;99.90;;;;;;4133821;28;20053;-57
2022/10/11 10:43:42;;;;;;;2.53;2.33;;;22.40;99.90;;;;;;4133467;28;20052;-57
2022/10/11 10:46:08;;;;;;;2.75;2.65;;;22.50;99.90;;;;;;4134018;28;20057;-57
2022/10/11 10:49:17;;;;;;;3.03;2.83;;;22.30;99.90;;;;;;4133872;28;20540;-57
2022/10/11 10:52:10;;;;;;;2.92;2.70;;;22.40;99.90;;;;;;4140113;28;20525;-58
2022/10/11 10:54:39;;;;;;;2.30;2.08;;;22.80;99.90;;;;;;4135693;28;20048;-58
2022/10/11 10:57:08;;;;;;;3.72;2.47;;;22.90;99.90;;;;;;4137402;28;20073;-57
2022/10/11 10:59:41;;;;;;;2.53;2.42;;;22.60;99.90;;;;;;4136549;28;20117;-58
2022/10/11 11:02:09;;;;;;;2.33;2.22;;;22.60;99.90;;;;;;4136201;28;20100;-58
2022/10/11 11:05:12;;;;;;;1.83;1.73;;;22.90;99.90;;;;;;4137078;28;20070;-58
2022/10/11 11:07:48;;;;;;;2.70;2.38;;;23.00;99.90;;;;;;4135482;28;20401;-57
2022/10/11 11:10:33;;;;;;;2.70;2.55;;;23.10;99.90;;;;;;4134392;28;20128;-58
2022/10/11 11:12:59;;;;;;;1.90;1.83;;;23.30;99.90;;;;;;4131860;28;20049;-57
2022/10/11 11:15:26;;;;;;;1.58;1.58;;;23.00;99.90;;;;;;4131348;28;20108;-58
2022/10/11 11:18:03;;;;;;;2.05;1.83;;;23.10;99.90;;;;;;4137037;28;20131;-57
2022/10/11 11:20:32;;;;;;;1.88;1.77;;;23.20;99.90;;;;;;4132271;28;20475;-57
2022/10/11 11:23:17;;;;;;;2.05;1.95;;;23.00;99.90;;;;;;4135255;28;20524;-57
2022/10/11 11:26:19;;;;;;;1.58;1.58;;;23.20;99.90;;;;;;4138080;28;20166;-57
2022/10/11 11:29:08;;;;;;;2.22;2.05;;;23.20;99.90;;;;;;4136430;28;20057;-57
2022/10/11 11:31:47;;;;;;;2.15;2.00;;;23.00;99.90;;;;;;4136851;28;20138;-57
2022/10/11 11:34:42;;;;;;;1.95;1.88;;;23.00;99.90;;;;;;4136551;28;20418;-57
2022/10/11 11:37:23;;;;;;;1.90;1.80;;;23.30;99.90;;;;;;4139562;28;20533;-57
2022/10/11 11:39:52;;;;;;;1.88;1.77;;;23.00;99.90;;;;;;4136546;28;20520;-57
2022/10/11 11:42:25;;;;;;;1.88;1.58;;;23.00;99.90;;;;;;4133382;28;20056;-57
2022/10/11 11:44:48;;;;;;;1.60;1.60;;;22.90;99.90;;;;;;4131718;28;20055;-57
2022/10/11 11:47:24;;;;;;;1.40;1.40;;;23.00;99.90;;;;;;4137457;28;20057;-57
2022/10/11 11:49:58;;;;;;;2.78;1.60;;;22.90;99.90;;;;;;4140153;28;20119;-57
2022/10/11 11:52:43;;;;;;;2.35;2.15;;;22.90;99.90;;;;;;4139368;28;20060;-57
2022/10/11 11:55:09;;;;;;;2.05;1.20;;;23.00;99.90;;;;;;4139900;28;20144;-58
2022/10/11 11:57:57;;;;;;;1.60;1.33;;;23.20;99.90;;;;;;4139335;28;20418;-57
2022/10/11 12:00:24;;;;;;;1.30;1.20;;;22.60;99.90;;;;;;4139681;28;20096;-57
2022/10/11 12:02:50;;;;;;;1.17;1.17;;;22.20;99.90;;;;;;4139715;28;21053;-57
2022/10/11 12:05:14;;;;;;;1.45;1.35;;;21.90;99.90;;;;;;4140059;28;20096;-57
2022/10/11 12:07:56;;;;;;;1.90;1.30;;;21.90;99.90;;;;;;4145318;28;20097;-57
2022/10/11 12:10:35;;;;;;;1.70;1.67;;;21.80;99.90;;;;;;4139564;28;20122;-56
2022/10/11 12:13:15;;;;;;;1.60;1.50;;;21.60;99.90;;;;;;4139916;28;20058;-57
2022/10/11 12:15:36;;;;;;;7.40;1.35;;;21.60;99.90;;;;;;4135765;28;20096;-56
2022/10/11 12:17:56;;;;;;;2.00;1.80;;;21.30;99.90;;;;;;4139625;28;20133;-56
2022/10/11 12:20:26;;;;;;;1.40;1.40;;;21.30;99.90;;;;;;4138681;28;20053;-56
2022/10/11 12:22:57;;;;;;;2.40;2.30;;;21.50;99.90;;;;;;4139859;28;20552;-57
2022/10/11 12:25:21;;;;;;;1.42;1.33;;;21.80;99.90;;;;;;4137881;28;20060;-56
2022/10/11 12:27:45;;;;;;;3.03;1.40;;;22.20;99.90;;;;;;4138280;28;20109;-56
2022/10/11 12:30:46;;;;;;;1.67;1.50;;;22.20;99.90;;;;;;4139447;28;20049;-57
2022/10/11 12:33:44;;;;;;;1.40;1.33;;;22.30;99.90;;;;;;4137867;28;20057;-57
2022/10/11 12:36:28;;;;;;;1.42;1.42;;;22.30;99.90;;;;;;4138940;28;20453;-56
2022/10/11 12:39:48;;;;;;;1.90;1.80;;;22.20;99.90;;;;;;4134672;28;20484;-57
2022/10/11 12:42:22;;;;;;;2.35;1.30;;;21.90;99.90;;;;;;4137088;28;20425;-57
2022/10/11 12:45:11;;;;;;;1.50;1.27;;;22.10;99.90;;;;;;4137985;28;20048;-57
2022/10/11 12:47:43;;;;;;;1.70;1.60;;;22.50;99.90;;;;;;4139410;28;20058;-57